Time;durP1;ratioP1;P1;durP2;ratioP2;P2;SDS_P1;SDS_P2;PMS_P1;PMS_P2;Temp;Humidity;BMP_temperature;BMP_pressure;BME280_temperature;BME280_humidity;BME280_pressure;Samples;Min_cycle;Max_cycle;Signal;HPM_P1;HPM_P2
2022/11/01 00:01:30;;;;;;;23.40;16.55;;;11.30;84.10;;;9.94;100.00;96059.88;4864479;28;20421;-67
2022/11/01 00:03:56;;;;;;;20.75;16.08;;;11.10;84.50;;;9.92;100.00;96061.06;4854506;28;20361;-68
2022/11/01 00:06:22;;;;;;;16.38;12.35;;;11.10;84.20;;;9.89;100.00;96056.19;4827291;28;20365;-66
2022/11/01 00:08:49;;;;;;;17.30;12.88;;;11.10;84.10;;;9.87;100.00;96045.03;4858579;28;20492;-67
2022/11/01 00:11:21;;;;;;;16.05;12.43;;;11.10;84.00;;;9.85;100.00;96045.22;4823752;28;20276;-66
2022/11/01 00:13:50;;;;;;;14.77;12.27;;;11.20;84.00;;;9.83;100.00;96048.06;4846193;28;20345;-66
2022/11/01 00:16:17;;;;;;;15.35;12.15;;;11.20;84.00;;;9.83;100.00;96053.31;4873174;28;20348;-67
2022/11/01 00:18:43;;;;;;;14.88;12.70;;;11.20;83.90;;;9.81;100.00;96060.56;4847543;28;20346;-66
2022/11/01 00:21:10;;;;;;;18.85;12.68;;;11.10;83.50;;;9.78;100.00;96054.88;4853882;28;20528;-68
2022/11/01 00:23:36;;;;;;;17.92;14.20;;;11.10;83.50;;;9.76;100.00;96062.13;4852802;28;20352;-67
2022/11/01 00:26:02;;;;;;;24.13;15.80;;;11.10;83.60;;;9.75;100.00;96056.06;4850367;28;20345;-67
2022/11/01 00:28:28;;;;;;;16.70;13.32;;;11.10;83.80;;;9.72;100.00;96056.41;4867121;28;20441;-67
2022/11/01 00:30:55;;;;;;;19.67;13.38;;;11.10;83.80;;;9.71;100.00;96059.22;4851377;28;20403;-67
2022/11/01 00:33:22;;;;;;;13.98;11.90;;;11.00;83.80;;;9.69;100.00;96059.38;4887181;28;20437;-67
2022/11/01 00:35:48;;;;;;;18.10;12.23;;;11.10;83.60;;;9.67;100.00;96053.50;4858878;28;20470;-67
2022/11/01 00:38:15;;;;;;;18.17;11.57;;;11.10;83.70;;;9.65;100.00;96055.50;4850779;28;20361;-66
2022/11/01 00:40:43;;;;;;;12.70;10.68;;;11.00;83.60;;;9.63;100.00;96052.25;4867260;28;20361;-66
2022/11/01 00:43:09;;;;;;;14.95;11.55;;;11.00;83.50;;;9.61;100.00;96049.00;4876627;28;20368;-66
2022/11/01 00:45:35;;;;;;;13.38;10.90;;;11.00;83.70;;;9.58;100.00;96043.31;4867207;28;20444;-66
2022/11/01 00:48:02;;;;;;;14.27;11.20;;;11.00;83.60;;;9.57;100.00;96046.94;4849318;28;20351;-67
2022/11/01 00:50:28;;;;;;;13.70;10.95;;;11.00;83.80;;;9.56;100.00;96048.75;4851600;28;20643;-66
2022/11/01 00:52:54;;;;;;;15.07;10.55;;;11.00;83.40;;;9.57;100.00;96050.38;4853308;28;20368;-67
2022/11/01 00:55:20;;;;;;;13.50;10.35;;;11.00;83.20;;;9.58;100.00;96044.13;4834453;28;20801;-67
2022/11/01 00:57:46;;;;;;;15.70;9.77;;;11.00;83.20;;;9.59;100.00;96045.75;4877493;28;20697;-66
2022/11/01 01:00:14;;;;;;;14.38;10.15;;;11.00;83.10;;;9.57;100.00;96045.13;4850671;28;20731;-66
2022/11/01 01:02:40;;;;;;;12.93;9.80;;;11.00;83.00;;;9.55;100.00;96036.63;4868151;28;20326;-68
2022/11/01 01:05:07;;;;;;;11.00;9.10;;;11.00;82.70;;;9.55;100.00;96043.69;4857842;28;20796;-66
2022/11/01 01:07:33;;;;;;;14.82;10.32;;;10.90;82.50;;;9.52;100.00;96050.13;4865377;28;20585;-67
2022/11/01 01:09:59;;;;;;;11.60;9.45;;;10.90;83.00;;;9.49;100.00;96040.78;4852495;28;20327;-66
2022/11/01 01:12:25;;;;;;;13.43;9.65;;;10.90;82.80;;;9.48;100.00;96039.13;4854434;28;20188;-67
2022/11/01 01:14:51;;;;;;;13.85;9.15;;;10.90;82.80;;;9.48;100.00;96038.31;4860724;28;20217;-66
2022/11/01 01:17:17;;;;;;;13.13;9.98;;;10.90;82.90;;;9.45;100.00;96043.94;4830388;28;20294;-66
2022/11/01 01:19:43;;;;;;;12.63;9.13;;;10.90;82.80;;;9.46;100.00;96040.31;4870262;28;20319;-66
2022/11/01 01:22:10;;;;;;;14.23;9.25;;;10.90;82.60;;;9.43;100.00;96035.44;4901391;28;20396;-67
2022/11/01 01:24:36;;;;;;;12.15;9.68;;;10.90;82.80;;;9.42;100.00;96034.63;4868875;28;20264;-67
2022/11/01 01:27:02;;;;;;;17.40;11.10;;;10.90;82.90;;;9.42;100.00;96034.63;4865707;28;20275;-67
2022/11/01 01:29:28;;;;;;;17.55;13.18;;;10.90;83.00;;;9.42;100.00;96026.75;4866482;28;20393;-67
2022/11/01 01:31:54;;;;;;;19.10;13.95;;;10.90;82.90;;;9.41;100.00;96027.75;4857086;28;20602;-66
2022/11/01 01:34:20;;;;;;;20.88;13.15;;;10.90;83.10;;;9.42;100.00;96018.06;4871673;28;20398;-67
2022/11/01 01:36:50;;;;;;;17.48;13.63;;;10.90;83.00;;;9.43;100.00;96024.94;4882266;28;20151;-66
2022/11/01 01:39:16;;;;;;;20.33;12.85;;;11.00;83.60;;;9.43;100.00;96025.75;4877251;28;20182;-66
2022/11/01 01:41:57;;;;;;;17.38;12.25;;;10.90;83.70;;;9.44;100.00;96022.13;4925334;28;20547;-67
2022/11/01 01:44:44;;;;;;;;;;;11.00;83.90;;;9.43;100.00;96014.44;4917098;28;20117;-65
2022/11/01 01:47:18;;;;;;;18.08;11.05;;;10.90;84.00;;;9.42;100.00;96016.25;4919696;28;20236;-66
2022/11/01 01:49:44;;;;;;;18.00;10.50;;;10.90;84.40;;;9.43;100.00;96019.69;4878593;28;20384;-66
2022/11/01 01:52:10;;;;;;;12.25;9.50;;;11.00;84.50;;;9.45;100.00;96017.69;4850471;28;20368;-67
2022/11/01 01:54:36;;;;;;;13.10;8.57;;;11.00;84.50;;;9.50;100.00;96020.56;4847826;28;20385;-66
2022/11/01 01:57:02;;;;;;;15.98;8.68;;;11.00;84.40;;;9.51;100.00;96009.09;4862276;28;20476;-65
2022/11/01 01:59:29;;;;;;;13.45;8.55;;;11.00;84.70;;;9.52;100.00;96011.53;4879889;28;20483;-66
2022/11/01 02:01:55;;;;;;;20.63;9.10;;;11.00;85.20;;;9.53;100.00;96014.97;4854943;28;20377;-68
2022/11/01 02:04:40;;;;;;;11.32;8.32;;;11.00;85.30;;;9.55;100.00;96013.00;4854391;28;20432;-66
2022/11/01 02:07:07;;;;;;;16.90;9.13;;;11.00;85.50;;;9.56;100.00;96017.25;4840722;28;20366;-66
2022/11/01 02:09:33;;;;;;;13.65;7.90;;;11.10;85.40;;;9.58;100.00;96017.88;4830780;28;20749;-67
2022/11/01 02:11:59;;;;;;;12.55;8.15;;;11.10;85.10;;;9.60;100.00;96010.63;4864327;28;20293;-67
2022/11/01 02:14:25;;;;;;;12.40;7.88;;;11.10;84.70;;;9.60;100.00;96015.88;4846565;28;20571;-67
2022/11/01 02:17:01;;;;;;;9.25;7.85;;;11.10;84.50;;;9.60;100.00;96018.50;4863183;28;20362;-66
2022/11/01 02:19:57;;;;;;;10.52;8.07;;;11.10;84.40;;;9.62;100.00;96013.88;4882385;28;20435;-66
2022/11/01 02:22:38;;;;;;;11.75;8.00;;;11.10;84.20;;;9.62;100.00;96016.50;4873766;28;20696;-67
2022/11/01 02:25:29;;;;;;;12.00;8.20;;;11.10;83.90;;;9.59;100.00;96029.19;4880464;28;20352;-67
2022/11/01 02:28:25;;;;;;;13.15;7.93;;;11.00;83.90;;;9.55;100.00;96039.25;4884409;28;20332;-67
2022/11/01 02:31:28;;;;;;;12.38;8.35;;;11.00;84.20;;;9.49;100.00;96053.09;4856359;28;20344;-67
2022/11/01 02:34:02;;;;;;;16.02;8.15;;;10.90;85.00;;;9.44;100.00;96052.81;4869109;28;20304;-67
2022/11/01 02:36:34;;;;;;;12.80;8.80;;;10.80;85.30;;;9.40;100.00;96049.75;4830027;28;20369;-66
2022/11/01 02:39:21;;;;;;;11.75;8.20;;;10.70;85.20;;;9.37;100.00;96055.38;4865951;28;20330;-72
2022/11/01 02:42:08;;;;;;;15.40;9.45;;;10.70;85.10;;;9.34;100.00;96049.69;4861978;28;20361;-66
2022/11/01 02:44:37;;;;;;;12.40;8.32;;;10.70;85.20;;;9.31;100.00;96044.78;4871525;28;20283;-66
2022/11/01 02:47:03;;;;;;;12.88;8.52;;;10.70;85.10;;;9.30;100.00;96045.78;4856536;28;20381;-66
2022/11/01 02:49:45;;;;;;;13.77;8.43;;;10.80;84.90;;;9.30;100.00;96040.53;4867361;28;20322;-67
2022/11/01 02:52:23;;;;;;;14.77;8.30;;;10.80;84.70;;;9.30;100.00;96043.16;4834957;28;20209;-66
2022/11/01 02:54:57;;;;;;;15.27;8.18;;;10.80;84.50;;;9.26;100.00;96032.19;4853550;28;20353;-67
2022/11/01 02:57:41;;;;;;;10.65;7.82;;;10.80;84.40;;;9.25;100.00;96035.81;4869572;28;20385;-68
2022/11/01 03:00:20;;;;;;;13.35;7.72;;;10.70;84.30;;;9.25;100.00;96035.00;4857905;28;20301;-68
2022/11/01 03:02:46;;;;;;;10.80;7.65;;;10.80;84.20;;;9.24;100.00;96044.69;4852196;28;20478;-67
2022/11/01 03:05:14;;;;;;;12.48;7.93;;;10.80;84.10;;;9.27;100.00;96043.50;4889149;28;20216;-67
2022/11/01 03:07:42;;;;;;;11.90;7.72;;;10.70;84.00;;;9.26;100.00;96049.75;4876511;28;20320;-67
2022/11/01 03:10:08;;;;;;;11.80;7.57;;;10.80;83.80;;;9.26;100.00;96057.63;4865607;28;20591;-67
2022/11/01 03:12:40;;;;;;;12.48;6.90;;;10.70;83.90;;;9.27;100.00;96059.25;4823877;28;20199;-69
2022/11/01 03:15:19;;;;;;;10.60;7.50;;;10.80;83.70;;;9.25;100.00;96051.56;4868122;28;20388;-67
2022/11/01 03:18:12;;;;;;;12.63;6.38;;;10.70;83.40;;;9.24;100.00;96057.81;4869398;28;20797;-67
2022/11/01 03:20:58;;;;;;;10.82;6.28;;;10.70;83.40;;;9.20;100.00;96057.38;4883255;28;20604;-66
2022/11/01 03:23:35;;;;;;;11.68;6.82;;;10.70;83.20;;;9.16;100.00;96056.09;4852178;28;20585;-67
2022/11/01 03:26:01;;;;;;;13.07;7.15;;;10.60;83.30;;;9.14;100.00;96065.97;4884834;28;20610;-66
2022/11/01 03:28:35;;;;;;;10.85;7.07;;;10.70;83.50;;;9.13;100.00;96064.34;4865108;28;20297;-66
2022/11/01 03:31:11;;;;;;;12.82;6.55;;;10.60;84.10;;;9.14;100.00;96075.66;4852571;28;20747;-67
2022/11/01 03:33:47;;;;;;;10.80;6.78;;;10.60;83.70;;;9.11;100.00;96079.44;4882717;28;20312;-66
2022/11/01 03:36:16;;;;;;;11.65;7.45;;;10.60;83.40;;;9.10;100.00;96077.81;4845141;28;20926;-67
2022/11/01 03:38:50;;;;;;;11.40;6.38;;;10.60;83.50;;;9.09;100.00;96076.19;4867763;28;20606;-67
2022/11/01 03:41:17;;;;;;;10.10;6.93;;;10.60;83.40;;;9.08;100.00;96076.38;4868637;28;20548;-67
2022/11/01 03:43:43;;;;;;;11.68;7.53;;;10.60;83.40;;;9.07;100.00;96075.56;4845719;28;20355;-66
2022/11/01 03:46:09;;;;;;;9.55;5.97;;;10.60;83.30;;;9.07;100.00;96088.69;4882711;28;20334;-67
2022/11/01 03:48:39;;;;;;;9.52;6.45;;;10.60;83.40;;;9.06;100.00;96087.06;4846418;28;20541;-66
2022/11/01 03:51:05;;;;;;;10.38;6.40;;;10.60;82.90;;;9.03;100.00;96082.13;4848571;28;20419;-66
2022/11/01 03:53:31;;;;;;;8.63;5.70;;;10.50;82.00;;;8.97;100.00;96082.88;4852116;28;20341;-66
2022/11/01 03:55:57;;;;;;;8.05;6.07;;;10.40;81.70;;;8.93;100.00;96086.84;4890403;28;20551;-66
2022/11/01 03:58:23;;;;;;;9.38;6.05;;;10.40;81.70;;;8.91;100.00;96094.06;4851417;28;20322;-67
2022/11/01 04:00:49;;;;;;;8.85;5.85;;;10.40;81.90;;;8.89;100.00;96102.13;4851094;28;20513;-68
2022/11/01 04:03:15;;;;;;;12.52;7.00;;;10.40;82.00;;;8.86;100.00;96101.69;4857201;28;20439;-66
2022/11/01 04:05:42;;;;;;;13.10;6.53;;;10.40;82.00;;;8.84;100.00;96098.41;4836644;28;20374;-66
2022/11/01 04:08:10;;;;;;;9.32;6.43;;;10.30;82.30;;;8.80;100.00;96102.38;4890176;28;20317;-66
2022/11/01 04:10:36;;;;;;;11.30;6.43;;;10.30;82.90;;;8.78;100.00;96094.69;4840152;28;20495;-66
2022/11/01 04:13:02;;;;;;;9.25;6.28;;;10.30;83.00;;;8.76;100.00;96095.84;4848366;28;20543;-66
2022/11/01 04:21:13;;;;;;;11.07;6.97;;;10.20;82.70;;;8.70;100.00;96123.59;4870615;28;20315;-66
2022/11/01 04:23:40;;;;;;;11.95;6.85;;;10.10;82.00;;;8.65;100.00;96114.66;4862413;28;20353;-66
2022/11/01 04:26:13;;;;;;;10.02;6.40;;;10.10;82.40;;;8.59;100.00;96116.94;4859928;28;20346;-67
2022/11/01 04:28:39;;;;;;;10.35;7.05;;;10.10;82.60;;;8.57;100.00;96112.88;4831462;28;20276;-67
2022/11/01 04:31:05;;;;;;;11.82;6.25;;;10.10;82.90;;;8.59;100.00;96122.19;4853063;28;20497;-66
2022/11/01 04:33:31;;;;;;;9.30;6.00;;;10.10;82.90;;;8.54;100.00;96142.88;4851295;28;20340;-67
2022/11/01 04:35:57;;;;;;;11.73;6.57;;;10.10;82.80;;;8.53;100.00;96143.88;4849842;28;20588;-67
2022/11/01 04:38:23;;;;;;;10.63;6.32;;;10.10;82.60;;;8.50;100.00;96140.78;4847862;28;20292;-68
2022/11/01 04:40:49;;;;;;;11.60;6.75;;;10.00;83.00;;;8.47;100.00;96135.91;4866285;28;20632;-66
2022/11/01 04:43:15;;;;;;;10.77;6.70;;;10.10;83.00;;;8.46;100.00;96131.66;4836270;28;20356;-65
2022/11/01 04:45:41;;;;;;;10.77;6.82;;;10.00;83.10;;;8.46;100.00;96136.91;4851811;28;20365;-66
2022/11/01 04:48:15;;;;;;;10.65;6.20;;;10.10;83.30;;;8.46;100.00;96132.47;4887291;28;20366;-66
2022/11/01 04:50:41;;;;;;;11.90;6.57;;;10.00;83.30;;;8.44;100.00;96128.41;4836889;28;20331;-66
2022/11/01 04:53:09;;;;;;;11.43;6.13;;;10.00;83.30;;;8.44;100.00;96123.97;4873796;28;20367;-67
2022/11/01 04:55:36;;;;;;;11.27;7.20;;;10.00;83.70;;;8.45;100.00;96133.47;4849364;28;20372;-67
2022/11/01 04:58:03;;;;;;;11.95;6.80;;;10.10;83.80;;;8.45;100.00;96141.31;4852122;28;20328;-67
2022/11/01 05:00:30;;;;;;;10.23;6.72;;;10.10;84.20;;;8.43;100.00;96150.34;4853528;28;20704;-66
2022/11/01 05:03:05;;;;;;;10.38;7.20;;;10.00;84.20;;;8.44;100.00;96150.19;4875339;28;20539;-66
2022/11/01 05:05:31;;;;;;;10.95;6.93;;;10.00;84.10;;;8.45;100.00;96151.81;4832191;28;20344;-67
2022/11/01 05:08:09;;;;;;;12.63;6.85;;;10.00;84.20;;;8.47;100.00;96149.00;4873110;28;20515;-67
2022/11/01 05:10:37;;;;;;;8.00;6.25;;;10.00;83.80;;;8.46;100.00;96140.34;4871827;28;20696;-68
2022/11/01 05:13:04;;;;;;;11.07;6.43;;;10.10;83.60;;;8.44;100.00;96138.88;4829913;28;20316;-67
2022/11/01 05:15:30;;;;;;;10.77;6.28;;;10.00;83.50;;;8.43;100.00;96143.31;4855146;28;20349;-67
2022/11/01 05:17:56;;;;;;;13.05;6.35;;;10.10;83.50;;;8.44;100.00;96144.94;4855015;28;20216;-67
2022/11/01 05:20:22;;;;;;;40.47;27.73;;;10.00;83.70;;;8.47;100.00;96149.81;4850917;28;20324;-66
2022/11/01 05:22:48;;;;;;;41.67;30.02;;;10.10;84.00;;;8.50;100.00;96165.19;4853726;28;20417;-66
2022/11/01 05:25:17;;;;;;;22.88;15.82;;;10.10;84.20;;;8.53;100.00;96164.03;4885905;28;20328;-66
2022/11/01 05:27:43;;;;;;;14.30;9.63;;;10.10;84.30;;;8.56;100.00;96163.69;4873345;28;20424;-68
2022/11/01 05:30:10;;;;;;;12.93;6.60;;;10.20;84.30;;;8.56;100.00;96164.50;4852171;28;20369;-67
2022/11/01 05:32:36;;;;;;;8.45;5.80;;;10.20;83.60;;;8.56;100.00;96169.75;4834615;28;20461;-67
2022/11/01 05:35:03;;;;;;;19.38;13.60;;;10.20;83.10;;;8.56;100.00;96167.13;4855294;28;20361;-67
2022/11/01 05:37:29;;;;;;;13.27;9.32;;;10.20;82.60;;;8.55;100.00;96173.34;4854802;28;20364;-67
2022/11/01 05:39:55;;;;;;;12.05;7.88;;;10.20;82.00;;;8.53;100.00;96175.34;4854285;28;20353;-67
2022/11/01 05:42:21;;;;;;;13.18;8.15;;;10.20;81.80;;;8.52;100.00;96173.72;4866863;28;20809;-66
2022/11/01 05:44:48;;;;;;;19.55;13.25;;;10.20;81.70;;;8.54;100.00;96176.16;4896097;28;20379;-66
2022/11/01 05:47:14;;;;;;;9.55;6.65;;;10.10;81.60;;;8.53;100.00;96180.59;4862251;28;20335;-67
2022/11/01 05:49:40;;;;;;;7.78;5.50;;;10.10;81.80;;;8.53;100.00;96185.81;4855378;28;20360;-66
2022/11/01 05:52:06;;;;;;;6.72;5.35;;;10.20;81.90;;;8.53;100.00;96188.44;4869621;28;20283;-66
2022/11/01 05:54:32;;;;;;;8.38;5.57;;;10.20;82.00;;;8.55;100.00;96190.91;4868755;28;20488;-67
2022/11/01 05:56:58;;;;;;;8.68;6.15;;;10.20;82.30;;;8.56;100.00;96201.22;4868619;28;20682;-67
2022/11/01 05:59:24;;;;;;;32.97;27.05;;;10.20;82.50;;;8.59;100.00;96203.47;4854026;28;20402;-67
2022/11/01 06:01:50;;;;;;;40.40;30.48;;;10.30;83.10;;;8.61;100.00;96198.09;4869144;28;20531;-67
2022/11/01 06:04:16;;;;;;;19.60;14.95;;;10.30;83.50;;;8.65;100.00;96193.31;4869615;28;20352;-66
2022/11/01 06:06:43;;;;;;;25.63;17.05;;;10.30;83.80;;;8.67;100.00;96201.81;4851418;28;20565;-67
2022/11/01 06:09:09;;;;;;;52.35;38.20;;;10.40;84.00;;;8.70;100.00;96206.69;4836563;28;20046;-67
2022/11/01 06:11:35;;;;;;;51.20;39.28;;;10.40;84.10;;;8.73;100.00;96216.84;4847952;28;20408;-66
2022/11/01 06:14:01;;;;;;;23.33;18.80;;;10.40;84.00;;;8.76;100.00;96226.97;4841810;28;20400;-67
2022/11/01 06:16:30;;;;;;;16.42;10.45;;;10.50;83.90;;;8.79;100.00;96231.88;4816922;28;20309;-66
2022/11/01 06:18:56;;;;;;;20.75;16.50;;;10.50;83.60;;;8.82;100.00;96236.75;4846086;28;20373;-66
2022/11/01 06:21:22;;;;;;;13.80;8.50;;;10.50;83.40;;;8.83;100.00;96243.66;4869790;28;20696;-66
2022/11/01 06:23:51;;;;;;;10.27;7.13;;;10.50;83.30;;;8.83;100.00;96248.91;4834538;28;20809;-66
2022/11/01 06:26:17;;;;;;;13.98;8.13;;;10.50;82.90;;;8.83;100.00;96264.66;4864851;28;20461;-67
2022/11/01 06:28:44;;;;;;;9.90;6.88;;;10.40;82.60;;;8.81;100.00;96269.22;4868780;28;20420;-68
2022/11/01 06:31:11;;;;;;;16.60;6.82;;;10.40;82.60;;;8.78;100.00;96266.97;4850908;28;20103;-68
2022/11/01 06:33:37;;;;;;;10.90;7.32;;;10.30;82.20;;;8.75;100.00;96283.03;4869651;28;20196;-68
2022/11/01 06:36:03;;;;;;;11.60;6.95;;;10.30;82.40;;;8.71;100.00;96285.19;4885592;28;20358;-69
2022/11/01 06:38:29;;;;;;;12.10;6.82;;;10.30;82.50;;;8.69;100.00;96289.00;4878130;28;20360;-67
2022/11/01 06:40:55;;;;;;;10.40;6.85;;;10.30;82.20;;;8.65;100.00;96288.53;4837838;28;20800;-68
2022/11/01 06:43:22;;;;;;;10.80;6.90;;;10.20;82.20;;;8.63;100.00;96302.78;4857125;28;20403;-67
2022/11/01 06:45:48;;;;;;;10.70;7.93;;;10.20;82.20;;;8.62;100.00;96303.78;4878987;28;20638;-68
2022/11/01 06:48:14;;;;;;;14.52;9.63;;;10.20;82.30;;;8.62;100.00;96306.41;4872061;28;20223;-68
2022/11/01 06:50:40;;;;;;;10.85;8.88;;;10.30;82.40;;;8.63;100.00;96294.94;4857705;28;20204;-68
2022/11/01 06:53:06;;;;;;;12.30;7.32;;;10.30;82.40;;;8.68;100.00;96313.56;4874587;28;20410;-67
2022/11/01 06:55:32;;;;;;;10.45;6.32;;;10.40;82.20;;;8.73;100.00;96306.00;4857196;28;20486;-68
2022/11/01 06:58:02;;;;;;;10.13;6.32;;;10.50;82.20;;;8.77;100.00;96302.03;4849864;28;20324;-70
2022/11/01 07:00:29;;;;;;;6.90;5.88;;;10.60;82.20;;;8.83;100.00;96311.88;4871434;28;20208;-69
2022/11/01 07:03:08;;;;;;;9.20;5.97;;;10.60;82.40;;;8.92;100.00;96321.31;4877612;28;20424;-67
2022/11/01 07:05:35;;;;;;;8.07;6.10;;;10.80;82.60;;;9.00;100.00;96326.50;4866917;28;20473;-67
2022/11/01 07:08:02;;;;;;;7.47;5.47;;;10.90;82.70;;;9.08;100.00;96318.59;4946083;28;20201;-70
2022/11/01 07:10:28;;;;;;;10.18;5.90;;;11.00;82.40;;;9.16;100.00;96323.78;4946304;28;20045;-69
2022/11/01 07:13:01;;;;;;;8.38;5.75;;;11.10;82.50;;;9.23;100.00;96326.50;4938060;28;20471;-73
2022/11/01 07:15:27;;;;;;;9.05;6.30;;;11.10;82.70;;;9.35;100.00;96334.81;4864812;28;20712;-68
2022/11/01 07:18:01;;;;;;;29.13;20.67;;;11.30;83.00;;;9.45;100.00;96332.75;4893319;28;20381;-71
2022/11/01 07:20:28;;;;;;;69.65;53.97;;;11.40;83.00;;;9.56;100.00;96340.22;4876754;28;20316;-72
2022/11/01 07:23:03;;;;;;;26.23;18.77;;;11.60;83.00;;;9.65;100.00;96339.16;4878690;28;20448;-70
2022/11/01 07:25:29;;;;;;;10.45;7.40;;;11.60;82.20;;;9.71;100.00;96351.56;4858855;28;20378;-67
2022/11/01 07:27:56;;;;;;;9.07;6.57;;;11.70;81.90;;;9.79;100.00;96362.03;4844002;28;20340;-67
2022/11/01 07:30:22;;;;;;;11.30;6.47;;;11.80;81.60;;;9.86;100.00;96362.13;4864707;28;20577;-67
2022/11/01 07:32:54;;;;;;;12.68;7.05;;;11.80;81.70;;;9.93;100.00;96357.78;4871646;28;20752;-68
2022/11/01 07:35:20;;;;;;;12.60;6.47;;;11.90;81.80;;;10.01;100.00;96354.28;4864346;28;20341;-68
2022/11/01 07:37:46;;;;;;;14.43;7.07;;;12.00;81.60;;;10.06;100.00;96359.81;4857979;28;20236;-68
2022/11/01 07:40:13;;;;;;;10.32;7.32;;;12.00;80.90;;;10.12;100.00;96365.16;4876193;28;20513;-68
2022/11/01 07:42:43;;;;;;;9.15;6.88;;;12.20;80.50;;;10.22;100.00;96362.31;4864072;28;20580;-70
2022/11/01 07:45:10;;;;;;;10.93;6.80;;;12.30;80.30;;;10.30;100.00;96369.31;4880583;28;20491;-68
2022/11/01 07:47:36;;;;;;;10.02;6.88;;;12.60;79.30;;;10.41;100.00;96361.78;4876650;28;20368;-68
2022/11/01 07:50:07;;;;;;;12.07;7.38;;;12.90;78.40;;;10.59;100.00;96371.09;4878432;28;20371;-66
2022/11/01 07:52:33;;;;;;;14.00;6.80;;;13.40;76.70;;;10.78;100.00;96362.66;4852365;28;20346;-65
2022/11/01 07:54:59;;;;;;;9.60;6.28;;;13.70;76.20;;;11.00;100.00;96366.97;4852870;28;20665;-68
2022/11/01 07:57:25;;;;;;;10.48;8.15;;;14.00;75.40;;;11.22;100.00;96370.47;4881977;28;20377;-64
2022/11/01 07:59:51;;;;;;;8.98;6.38;;;14.20;75.40;;;11.48;100.00;96364.66;4900604;28;20102;-69
2022/11/01 08:02:17;;;;;;;5.47;4.75;;;14.60;74.60;;;11.75;100.00;96368.34;4907684;28;20046;-71
2022/11/01 08:04:43;;;;;;;9.55;5.32;;;14.90;73.20;;;12.03;100.00;96368.44;4903839;28;20243;-69
2022/11/01 08:07:09;;;;;;;9.93;5.28;;;15.30;72.60;;;12.35;100.00;96366.22;4938487;28;20203;-70
2022/11/01 08:09:35;;;;;;;9.10;5.25;;;15.80;71.50;;;12.65;100.00;96362.31;4877938;28;20193;-71
2022/11/01 08:12:01;;;;;;;10.52;5.05;;;16.00;71.40;;;12.92;100.00;96368.56;4866389;28;20360;-71
2022/11/01 08:14:27;;;;;;;10.60;5.30;;;16.10;71.30;;;13.13;100.00;96367.63;4860010;28;20457;-72
2022/11/01 08:17:00;;;;;;;8.27;4.70;;;16.10;72.00;;;13.29;100.00;96359.34;4845922;28;20542;-72
2022/11/01 08:19:26;;;;;;;9.32;5.03;;;16.00;71.50;;;13.42;100.00;96364.69;4862900;28;20311;-69
2022/11/01 08:21:55;;;;;;;10.18;4.95;;;16.00;71.80;;;13.49;100.00;96360.22;4882901;28;20205;-72
2022/11/01 08:24:22;;;;;;;6.97;4.32;;;15.80;71.90;;;13.56;100.00;96351.47;4849261;28;20562;-72
2022/11/01 08:26:48;;;;;;;6.70;4.60;;;15.70;71.90;;;13.58;100.00;96355.56;4869463;28;20541;-67
2022/11/01 08:29:14;;;;;;;9.02;4.68;;;15.70;71.10;;;13.60;100.00;96365.94;4865472;28;20839;-63
2022/11/01 08:31:40;;;;;;;6.20;4.32;;;15.70;71.80;;;13.62;100.00;96354.16;4877595;28;20336;-62
2022/11/01 08:34:06;;;;;;;7.95;4.93;;;15.80;72.30;;;13.67;100.00;96358.81;4886227;28;20831;-62
2022/11/01 08:36:33;;;;;;;9.82;4.82;;;15.90;72.10;;;13.73;100.00;96361.47;4867439;28;20703;-64
2022/11/01 08:39:02;;;;;;;9.68;4.43;;;16.10;71.30;;;13.82;100.00;96363.94;4864862;28;20365;-71
2022/11/01 08:41:31;;;;;;;8.88;4.95;;;16.30;71.10;;;13.94;100.00;96368.41;4882703;28;20577;-73
2022/11/01 08:43:58;;;;;;;7.93;4.63;;;16.60;70.40;;;14.07;100.00;96365.78;4863774;28;20361;-72
2022/11/01 08:46:24;;;;;;;11.23;4.10;;;16.90;69.30;;;14.23;100.00;96361.06;4851889;28;20336;-72
2022/11/01 08:48:59;;;;;;;7.57;3.95;;;17.20;67.90;;;14.43;100.00;96356.59;4852179;28;20546;-71
2022/11/01 08:51:26;;;;;;;8.50;4.47;;;17.80;67.00;;;14.69;100.00;96359.16;4880223;28;20244;-71
2022/11/01 08:53:56;;;;;;;8.90;4.80;;;18.50;65.30;;;14.99;100.00;96366.63;4879958;28;20433;-67
2022/11/01 08:56:26;;;;;;;9.50;4.50;;;19.20;63.70;;;15.33;100.00;96358.28;4862675;28;20272;-68
2022/11/01 08:58:58;;;;;;;8.65;4.25;;;19.70;61.20;;;15.69;100.00;96359.56;4873746;28;20396;-68
2022/11/01 09:01:25;;;;;;;9.57;4.10;;;20.30;59.80;;;16.09;100.00;96362.72;4873981;28;20674;-69
2022/11/01 09:04:00;;;;;;;12.38;5.57;;;20.80;58.30;;;16.48;100.00;96364.19;4859870;28;20253;-71
2022/11/01 09:06:29;;;;;;;10.48;4.90;;;21.30;57.10;;;16.86;100.00;96362.41;4844835;28;20358;-68
2022/11/01 09:08:55;;;;;;;11.55;4.57;;;21.50;55.30;;;17.12;100.00;96362.91;4891976;28;20118;-68
2022/11/01 09:11:22;;;;;;;10.52;4.15;;;21.50;56.20;;;17.38;100.00;96366.25;4950545;28;20034;-66
2022/11/01 09:13:48;;;;;;;9.48;4.85;;;21.70;55.70;;;17.54;100.00;96373.63;4975055;28;20668;-67
2022/11/01 09:16:14;;;;;;;10.30;4.18;;;21.10;57.30;;;17.63;98.79;96368.78;4940281;28;20122;-66
2022/11/01 09:18:40;;;;;;;9.10;4.07;;;20.60;58.40;;;17.66;96.62;96368.34;4966092;28;20042;-69
2022/11/01 09:21:06;;;;;;;8.68;3.97;;;20.20;59.20;;;17.64;96.32;96365.91;4961137;28;20026;-66
2022/11/01 09:23:34;;;;;;;9.90;4.97;;;20.00;60.30;;;17.56;96.50;96371.53;4972516;28;20030;-66
2022/11/01 09:26:07;;;;;;;9.98;4.20;;;19.60;61.60;;;17.49;93.80;96372.69;4963525;28;20042;-66
2022/11/01 09:28:33;;;;;;;13.43;5.57;;;19.50;62.50;;;17.43;94.74;96371.75;4962266;28;20085;-68
2022/11/01 09:31:04;;;;;;;11.68;4.20;;;19.40;62.30;;;17.30;91.80;96363.94;4961877;28;20038;-66
2022/11/01 09:33:30;;;;;;;9.23;4.90;;;19.00;62.10;;;17.19;93.55;96367.31;4966223;28;20045;-65
2022/11/01 09:35:56;;;;;;;7.55;4.10;;;18.90;62.90;;;17.13;92.80;96375.16;4964489;28;20034;-65
2022/11/01 09:38:22;;;;;;;10.75;4.32;;;18.90;62.90;;;17.10;93.47;96374.81;4963965;28;20687;-67
2022/11/01 09:41:04;;;;;;;8.15;4.50;;;18.80;63.00;;;17.04;91.17;96365.06;4977451;28;20154;-65
2022/11/01 09:43:34;;;;;;;9.48;4.70;;;18.80;62.70;;;16.95;91.84;96359.22;4984880;28;20069;-68
2022/11/01 09:45:59;;;;;;;7.72;4.72;;;18.60;63.40;;;16.89;92.29;96368.09;4950810;28;20061;-68
2022/11/01 09:48:27;;;;;;;11.43;5.22;;;18.60;64.10;;;16.86;93.11;96363.22;4957847;28;20034;-68
2022/11/01 09:50:53;;;;;;;28.52;21.83;;;18.60;63.90;;;16.80;93.44;96369.44;4980934;28;20034;-67
2022/11/01 09:53:26;;;;;;;14.85;8.10;;;18.50;64.70;;;16.77;94.18;96364.56;4968612;28;20044;-70
2022/11/01 09:56:12;;;;;;;12.15;6.82;;;18.60;64.90;;;16.76;93.68;96357.63;4932546;28;20041;-69
2022/11/01 09:58:53;;;;;;;12.48;4.88;;;18.60;64.80;;;16.76;94.85;96355.78;4976913;28;20129;-68
2022/11/01 10:01:49;;;;;;;9.32;4.10;;;18.70;65.00;;;16.78;92.81;96355.56;4956966;28;20493;-64
2022/11/01 10:05:00;;;;;;;7.93;4.78;;;18.70;63.70;;;16.81;93.94;96349.81;4990170;28;20045;-65
2022/11/01 10:07:53;;;;;;;11.48;4.93;;;18.90;64.20;;;16.92;93.63;96349.03;4953487;28;20041;-68
2022/11/01 10:11:07;;;;;;;6.88;4.20;;;19.20;63.30;;;17.09;92.70;96347.41;4918401;28;20408;-65
2022/11/01 10:13:45;;;;;;;10.88;4.28;;;19.80;62.10;;;17.38;93.92;96350.31;4900161;28;20293;-66
2022/11/01 10:16:36;;;;;;;8.18;4.78;;;20.60;59.90;;;17.59;90.14;96352.47;4937311;28;20042;-64
2022/11/01 10:19:13;;;;;;;13.85;7.63;;;20.50;59.20;;;17.72;90.29;96362.97;4934927;28;20061;-63
2022/11/01 10:22:01;;;;;;;11.25;5.55;;;20.50;59.60;;;17.87;88.30;96364.38;4940286;28;20072;-64
2022/11/01 10:24:54;;;;;;;8.70;4.68;;;20.50;59.20;;;17.95;88.29;96369.38;4916845;28;20252;-73
2022/11/01 10:27:43;;;;;;;12.77;4.68;;;20.40;59.70;;;17.98;88.94;96374.25;4912298;28;20485;-72
2022/11/01 10:30:15;;;;;;;10.95;3.70;;;20.30;60.40;;;17.99;88.63;96379.34;4903019;28;20260;-73